Date,TemperatureHighF,TemperatureAvgF,TemperatureLowF,DewpointHighF,DewpointAvgF,DewpointLowF,HumidityHigh,HumidityAvg,HumidityLow,PressureMaxIn,PressureMinIn,WindSpeedMaxMPH,WindSpeedAvgMPH,GustSpeedMaxMPH,PrecipitationSumIn
2013-2-1,63,29,17,34,18,9,92,72,17,0.00,40.00,12,7,17,0.00
2013-2-2,43,28,18,30,20,12,90,74,38,0.00,40.00,10,4,14,0.00
2013-2-3,55,34,23,32,23,12,94,72,23,0.00,40.00,8,5,14,0.00
2013-2-4,61,30,18,30,18,1,91,68,11,0.00,40.00,13,7,17,0.00
2013-2-5,56,36,24,29,19,7,79,53,19,0.00,40.00,10,6,16,0.00
2013-2-6,44,34,21,27,20,13,90,59,30,0.00,40.00,12,6,19,0.00
2013-2-7,45,30,17,25,17,7,90,61,33,0.00,40.00,19,11,31,0.00
2013-2-8,37,30,24,31,26,19,99,84,58,0.00,40.00,12,5,24,0.10
2013-2-9,29,24,18,26,21,13,98,89,71,0.00,40.00,12,6,17,0.02
2013-2-10,29,20,7,24,17,4,98,88,70,0.00,40.00,21,8,28,0.01
2013-2-11,29,8,-8,18,0,-11,87,74,38,0.00,40.00,8,3,10,0.01
2013-2-12,42,14,-2,29,6,-6,93,73,29,0.00,40.00,11,6,14,0.01
2013-2-13,51,23,7,34,15,3,95,77,25,0.00,40.00,10,5,15,0.01
2013-2-14,40,25,13,27,19,9,96,78,51,0.00,40.00,13,7,17,0.00
2013-2-15,50,25,11,29,18,7,96,78,31,0.00,40.00,9,5,15,0.00
2013-2-16,67,33,15,24,15,2,91,56,9,0.00,40.00,13,7,18,0.00
2013-2-17,45,32,17,23,17,-1,90,58,28,0.00,40.00,16,7,26,0.00
2013-2-18,52,26,9,24,11,-10,90,59,10,0.00,40.00,13,7,24,0.00
2013-2-19,42,35,30,29,20,14,86,55,38,0.00,40.00,18,12,28,0.00
2013-2-20,33,29,20,28,24,13,97,81,62,0.00,40.00,16,10,27,0.00
2013-2-21,33,22,10,17,10,1,90,61,27,0.00,40.00,14,6,21,0.00
2013-2-22,39,25,12,24,15,3,88,68,34,0.00,40.00,10,6,17,0.00
2013-2-23,32,27,21,27,15,8,86,62,40,0.00,40.00,21,12,40,0.00
2013-2-24,32,24,14,19,13,6,91,65,34,0.00,40.00,18,10,27,0.00
2013-2-25,50,24,7,26,9,0,86,61,15,0.00,40.00,20,8,34,0.00
2013-2-26,33,24,17,17,12,4,91,63,30,0.00,40.00,13,6,21,0.00
2013-2-27,39,23,6,22,9,-4,88,62,16,0.00,40.00,13,5,17,0.00
2013-2-28,58,30,17,31,16,7,86,61,17,0.00,40.00,12,7,19,0.00